Sea Start — FAD9561 — position and weather

sailwx.info

Track history (hours):
 
Tides and Currents Weather Stations Pressure Air Temp Water Temp Dewpoint Dewpoint Depression Visibility Wind Speed Wind Dir Waves Ship Positions

Sea Start

Last reported at 2017-Aug-26 17:33 UTC. Time now 2017-Sep-23 23:47 UTC.
Position N 14°24' W 060°58'.
Warning: this ship's position is 28 days out of date.

Length 10 m.

Type: Pleasure craft. MMSI: 347017380.

Date/timePositionNaut miles runAvg speedWind from/ knotsBaromVisibWave heightAir tempDewpointWater temp
2017-Aug-26 17:33N 14°24' W 060°58'117.6
2017-Aug-26 17:30N 14°24' W 060°57'5 8.1
2017-Aug-26 16:55N 14°27' W 060°53'0 0.1
2017-Aug-26 16:30N 14°27' W 060°53'1 2.4
2017-Aug-26 15:55N 14°28' W 060°52'0 0.0
2017-Aug-26 15:25N 14°28' W 060°52'0 0.0
2017-Aug-26 14:52N 14°28' W 060°52'0 0.0
2017-Aug-26 13:58N 14°28' W 060°52'0 0.0
2017-Aug-26 13:28N 14°28' W 060°52'0 0.0
2017-Aug-26 12:58N 14°28' W 060°52'0 0.0
2017-Aug-25 20:37N 14°28' W 060°52'0 0.0
2017-Aug-25 13:10N 14°28' W 060°52'0 0.0
2017-Aug-24 14:09N 14°28' W 060°52'1 4.0
2017-Aug-24 14:00N 14°28' W 060°52'1 1.3
2017-Aug-24 13:30N 14°28' W 060°53'0 1.0
2017-Aug-24 13:00N 14°28' W 060°52'0 0.0
2017-Aug-23 23:29N 14°28' W 060°52'3 5.9
2017-Aug-23 23:00N 14°26' W 060°54'5 1.0
2017-Aug-23 17:59N 14°22' W 060°51'  
2017-Aug-20 19:51N 14°28' W 060°52'5 2.1
2017-Aug-20 17:19N 14°23' W 060°52'5 3.7
2017-Aug-20 15:51N 14°28' W 060°52'0 0.4
2017-Aug-20 15:29N 14°28' W 060°52'0 0.0
2017-Aug-20 00:19N 14°28' W 060°52'0 0.0
2017-Aug-19 23:58N 14°28' W 060°52'3 6.9
2017-Aug-19 23:30N 14°26' W 060°54'4 0.8
2017-Aug-19 19:12N 14°23' W 060°53'525.7
2017-Aug-19 19:00N 14°28' W 060°52'1 0.0
2017-Aug-18 23:36N 14°28' W 060°52'0 0.0
2017-Aug-18 23:30N 14°28' W 060°52'0 0.0
2017-Aug-18 22:54N 14°28' W 060°52'5 1.4
2017-Aug-18 19:20N 14°23' W 060°54'514.4
2017-Aug-18 19:00N 14°28' W 060°52'0 0.0
2017-Aug-17 22:52N 14°28' W 060°52'5 1.5
2017-Aug-17 19:20N 14°23' W 060°53'  
Track history (hours):
 
Tides and Currents Weather Stations Pressure Air Temp Water Temp Dewpoint Dewpoint Depression Visibility Wind Speed Wind Dir Waves Ship Positions

Sea Start

Last reported at 2017-Aug-26 17:33 UTC. Time now 2017-Sep-23 23:47 UTC.
Position N 14°24' W 060°58'.
Warning: this ship's position is 28 days out of date.

Length 10 m.

Type: Pleasure craft. MMSI: 347017380.

Date/timePositionNaut miles runAvg speedWind from/ knotsBaromVisibWave heightAir tempDewpointWater temp
2017-Aug-26 17:33N 14°24' W 060°58'117.6
2017-Aug-26 17:30N 14°24' W 060°57'5 8.1
2017-Aug-26 16:55N 14°27' W 060°53'0 0.1
2017-Aug-26 16:30N 14°27' W 060°53'1 2.4
2017-Aug-26 15:55N 14°28' W 060°52'0 0.0
2017-Aug-26 15:25N 14°28' W 060°52'0 0.0
2017-Aug-26 14:52N 14°28' W 060°52'0 0.0
2017-Aug-26 13:58N 14°28' W 060°52'0 0.0
2017-Aug-26 13:28N 14°28' W 060°52'0 0.0
2017-Aug-26 12:58N 14°28' W 060°52'0 0.0
2017-Aug-25 20:37N 14°28' W 060°52'0 0.0
2017-Aug-25 13:10N 14°28' W 060°52'0 0.0
2017-Aug-24 14:09N 14°28' W 060°52'1 4.0
2017-Aug-24 14:00N 14°28' W 060°52'1 1.3
2017-Aug-24 13:30N 14°28' W 060°53'0 1.0
2017-Aug-24 13:00N 14°28' W 060°52'0 0.0
2017-Aug-23 23:29N 14°28' W 060°52'3 5.9
2017-Aug-23 23:00N 14°26' W 060°54'5 1.0
2017-Aug-23 17:59N 14°22' W 060°51'  
2017-Aug-20 19:51N 14°28' W 060°52'5 2.1
2017-Aug-20 17:19N 14°23' W 060°52'5 3.7
2017-Aug-20 15:51N 14°28' W 060°52'0 0.4
2017-Aug-20 15:29N 14°28' W 060°52'0 0.0
2017-Aug-20 00:19N 14°28' W 060°52'0 0.0
2017-Aug-19 23:58N 14°28' W 060°52'3 6.9
2017-Aug-19 23:30N 14°26' W 060°54'4 0.8
2017-Aug-19 19:12N 14°23' W 060°53'525.7
2017-Aug-19 19:00N 14°28' W 060°52'1 0.0
2017-Aug-18 23:36N 14°28' W 060°52'0 0.0
2017-Aug-18 23:30N 14°28' W 060°52'0 0.0
2017-Aug-18 22:54N 14°28' W 060°52'5 1.4
2017-Aug-18 19:20N 14°23' W 060°54'514.4
2017-Aug-18 19:00N 14°28' W 060°52'0 0.0
2017-Aug-17 22:52N 14°28' W 060°52'5 1.5
2017-Aug-17 19:20N 14°23' W 060°53'  

Dump ship's entire track history